createdAt,value
2024-03-13T00:00:28.668Z,7.93
2024-03-13T00:02:57.340Z,6.45
2024-03-13T00:05:26.166Z,6.55
2024-03-13T00:07:55.038Z,8.52
2024-03-13T00:10:23.837Z,7.78
2024-03-13T00:12:52.918Z,7.95
2024-03-13T00:15:21.637Z,6.95
2024-03-13T00:17:50.314Z,6.57
2024-03-13T00:20:19.014Z,7.43
2024-03-13T00:22:48.105Z,8.85
2024-03-13T00:25:17.679Z,6.13
2024-03-13T00:27:48.997Z,7.18
2024-03-13T00:30:21.340Z,6.03
2024-03-13T00:32:50.278Z,5.75
2024-03-13T00:35:19.035Z,5.03
2024-03-13T00:37:47.948Z,6.38
2024-03-13T00:40:16.746Z,5.38
2024-03-13T00:42:48.650Z,7.82
2024-03-13T00:45:17.416Z,4.30
2024-03-13T00:47:46.137Z,5.40
2024-03-13T00:50:17.783Z,5.05
2024-03-13T00:52:46.457Z,7.05
2024-03-13T00:55:15.221Z,4.07
2024-03-13T00:57:44.574Z,11.55
2024-03-13T01:00:14.089Z,6.47
2024-03-13T01:02:47.509Z,4.95
2024-03-13T01:05:16.244Z,6.18
2024-03-13T01:07:46.964Z,6.25
2024-03-13T01:10:16.214Z,3.83
2024-03-13T01:12:44.870Z,4.63
2024-03-13T01:15:12.923Z,3.80
2024-03-13T01:17:42.840Z,4.63
2024-03-13T01:20:17.689Z,3.85
2024-03-13T01:22:52.900Z,8.40
2024-03-13T01:25:24.150Z,5.03
2024-03-13T01:27:53.152Z,5.43
2024-03-13T01:30:23.866Z,4.32
2024-03-13T01:32:52.796Z,4.32
2024-03-13T01:35:21.945Z,5.45
2024-03-13T01:38:00.508Z,5.45
2024-03-13T01:40:49.047Z,8.98
2024-03-13T01:43:38.798Z,4.50
2024-03-13T01:46:38.323Z,4.15
2024-03-13T01:49:40.080Z,10.80
2024-03-13T01:53:00.194Z,3.85
2024-03-13T01:55:32.488Z,3.85
2024-03-13T01:58:01.526Z,6.35
2024-03-13T02:00:49.337Z,3.50
2024-03-13T02:03:18.359Z,4.78
2024-03-13T02:05:48.090Z,4.32
2024-03-13T02:08:18.771Z,4.53
2024-03-13T02:10:49.383Z,4.68
2024-03-13T02:13:20.209Z,5.20
2024-03-13T02:15:49.128Z,7.65
2024-03-13T02:18:26.601Z,5.18
2024-03-13T02:20:55.578Z,4.80
2024-03-13T02:23:31.418Z,5.05
2024-03-13T02:26:00.719Z,3.25
2024-03-13T02:28:37.223Z,4.20
2024-03-13T02:31:09.818Z,3.92
2024-03-13T02:33:38.816Z,3.57
2024-03-13T02:36:08.177Z,6.10
2024-03-13T02:38:36.840Z,3.80
2024-03-13T02:41:05.619Z,2.67
2024-03-13T02:43:37.224Z,3.47
2024-03-13T02:46:06.121Z,3.22
2024-03-13T02:48:35.123Z,4.00
2024-03-13T02:51:03.752Z,3.78
2024-03-13T02:53:32.585Z,3.53
2024-03-13T02:56:01.342Z,4.07
2024-03-13T02:58:30.295Z,4.13
2024-03-13T03:01:00.260Z,3.83
2024-03-13T03:03:30.971Z,3.85
2024-03-13T03:05:59.953Z,4.78
2024-03-13T03:08:28.844Z,4.72
2024-03-13T03:10:58.492Z,3.42
2024-03-13T03:13:28.402Z,7.18
2024-03-13T03:15:57.319Z,4.45
2024-03-13T03:18:25.997Z,3.15
2024-03-13T03:20:54.833Z,6.80
2024-03-13T03:23:23.569Z,3.65
2024-03-13T03:25:52.933Z,4.10
2024-03-13T03:28:21.971Z,5.55
2024-03-13T03:30:51.301Z,5.40
2024-03-13T03:33:20.472Z,5.75
2024-03-13T03:35:49.143Z,4.90
2024-03-13T03:38:17.759Z,5.05
2024-03-13T03:40:46.482Z,4.10
2024-03-13T03:43:15.804Z,3.10
2024-03-13T03:45:46.119Z,5.22
2024-03-13T03:48:14.906Z,4.05
2024-03-13T03:50:42.993Z,4.50
2024-03-13T03:53:11.826Z,5.50
2024-03-13T03:55:40.602Z,3.35
2024-03-13T03:58:09.372Z,4.47
2024-03-13T04:00:38.014Z,4.18
2024-03-13T04:03:07.901Z,9.75
2024-03-13T04:05:36.685Z,4.88
2024-03-13T04:08:05.439Z,4.45
2024-03-13T04:10:34.269Z,3.42
2024-03-13T04:13:03.181Z,4.47
2024-03-13T04:15:31.932Z,6.38
2024-03-13T04:18:00.795Z,4.43
2024-03-13T04:20:29.525Z,4.43
2024-03-13T04:22:58.574Z,4.85
2024-03-13T04:25:27.354Z,4.97
2024-03-13T04:27:58.980Z,4.80
2024-03-13T04:30:27.662Z,4.63
2024-03-13T04:32:56.280Z,6.60
2024-03-13T04:35:25.051Z,5.43
2024-03-13T04:37:54.264Z,4.78
2024-03-13T04:40:22.977Z,6.53
2024-03-13T04:42:52.283Z,5.80
2024-03-13T04:45:21.241Z,5.20
2024-03-13T04:47:49.989Z,5.13
2024-03-13T04:50:18.641Z,5.53
2024-03-13T04:52:48.000Z,4.72
2024-03-13T04:55:16.748Z,5.22
2024-03-13T04:57:44.760Z,6.10
2024-03-13T05:00:13.797Z,4.93
2024-03-13T05:02:42.470Z,9.20
2024-03-13T05:05:17.280Z,8.82
2024-03-13T05:07:46.268Z,4.70
2024-03-13T05:10:19.548Z,6.60
2024-03-13T05:12:50.801Z,4.20
2024-03-13T05:15:19.790Z,5.40
2024-03-13T05:17:51.859Z,5.00
2024-03-13T05:20:20.618Z,4.20
2024-03-13T05:22:49.311Z,4.50
2024-03-13T05:25:19.894Z,5.55
2024-03-13T05:27:48.503Z,5.05
2024-03-13T05:30:17.395Z,5.03
2024-03-13T05:32:46.622Z,8.38
2024-03-13T05:35:18.188Z,4.68
2024-03-13T05:37:48.144Z,9.10
2024-03-13T05:40:21.834Z,4.53
2024-03-13T05:42:50.799Z,5.75
2024-03-13T05:45:19.415Z,6.05
2024-03-13T05:47:48.066Z,6.90
2024-03-13T05:50:20.001Z,5.10
2024-03-13T05:52:48.796Z,4.65
2024-03-13T05:55:21.883Z,5.55
2024-03-13T05:57:51.515Z,7.85
2024-03-13T06:00:21.962Z,4.30
2024-03-13T06:02:51.139Z,4.93
2024-03-13T06:05:19.720Z,5.70
2024-03-13T06:07:49.148Z,5.90
2024-03-13T06:10:18.412Z,6.78
2024-03-13T06:12:47.140Z,4.72
2024-03-13T06:15:16.665Z,6.13
2024-03-13T06:17:47.801Z,6.10
2024-03-13T06:20:17.722Z,6.93
2024-03-13T06:22:46.689Z,6.60
2024-03-13T06:25:18.043Z,5.20
2024-03-13T06:27:47.003Z,8.55
2024-03-13T06:30:15.895Z,4.88
2024-03-13T06:32:44.595Z,5.40
2024-03-13T06:35:13.232Z,5.97
2024-03-13T06:37:41.953Z,6.30
2024-03-13T06:40:11.143Z,5.68
2024-03-13T06:42:39.869Z,11.55
2024-03-13T06:45:09.357Z,4.85
2024-03-13T06:47:38.692Z,6.97
2024-03-13T06:50:07.897Z,5.57
2024-03-13T06:52:36.594Z,8.23
2024-03-13T06:55:05.403Z,6.25
2024-03-13T06:57:34.349Z,5.30
2024-03-13T07:00:02.958Z,6.10
2024-03-13T07:02:33.252Z,6.22
2024-03-13T07:05:01.988Z,3.95
2024-03-13T07:07:30.749Z,7.53
2024-03-13T07:09:58.744Z,4.43
2024-03-13T07:12:27.826Z,6.15
2024-03-13T07:14:56.540Z,6.45
2024-03-13T07:17:25.140Z,5.25
2024-03-13T07:19:56.293Z,7.68
2024-03-13T07:22:26.165Z,5.90
2024-03-13T07:24:54.848Z,7.03
2024-03-13T07:27:23.589Z,5.18
2024-03-13T07:29:52.202Z,6.53
2024-03-13T07:32:22.431Z,6.60
2024-03-13T07:34:51.147Z,5.25
2024-03-13T07:37:20.142Z,9.65
2024-03-13T07:39:48.828Z,5.82
2024-03-13T07:42:17.538Z,7.10
2024-03-13T07:44:46.590Z,5.70
2024-03-13T07:47:15.548Z,6.80
2024-03-13T07:49:45.943Z,6.65
2024-03-13T07:52:15.200Z,10.30
2024-03-13T07:54:43.897Z,5.75
2024-03-13T07:57:14.454Z,5.47
2024-03-13T07:59:47.682Z,8.65
2024-03-13T08:02:16.928Z,5.63
2024-03-13T08:04:45.102Z,8.82
2024-03-13T09:07:54.926Z,7.32
2024-03-13T09:10:24.158Z,8.68
2024-03-13T09:12:55.674Z,7.95
2024-03-13T09:15:26.425Z,6.35
2024-03-13T09:17:55.057Z,5.80
2024-03-13T09:20:28.002Z,6.82
2024-03-13T09:22:57.925Z,9.48
2024-03-13T09:25:26.634Z,9.32
2024-03-13T09:27:55.201Z,7.28
2024-03-13T09:30:23.785Z,6.88
2024-03-13T09:32:52.466Z,7.45
2024-03-13T09:35:21.135Z,6.03
2024-03-13T09:37:49.664Z,6.88
2024-03-13T09:40:22.100Z,8.45
2024-03-13T09:42:58.298Z,4.95
2024-03-13T09:45:27.523Z,7.05
2024-03-13T09:47:56.300Z,7.60
2024-03-13T09:50:27.281Z,6.32
2024-03-13T09:52:58.312Z,7.05
2024-03-13T09:55:28.159Z,8.13
2024-03-13T09:57:57.927Z,6.90
2024-03-13T10:00:28.196Z,4.28
2024-03-13T10:02:59.798Z,5.70
2024-03-13T10:05:30.201Z,8.30
2024-03-13T10:08:03.256Z,6.57
2024-03-13T10:10:35.262Z,11.52
2024-03-13T10:13:04.304Z,7.93
2024-03-13T10:15:33.389Z,5.93
2024-03-13T10:18:22.360Z,9.52
2024-03-13T10:20:59.611Z,6.47
2024-03-13T10:23:31.702Z,6.28
2024-03-13T10:26:01.917Z,7.03
2024-03-13T10:28:32.309Z,5.60
2024-03-13T10:31:02.535Z,6.65
2024-03-13T10:33:33.056Z,7.97
2024-03-13T10:36:01.896Z,7.10
2024-03-13T10:38:35.932Z,5.90
2024-03-13T10:41:05.114Z,9.35
2024-03-13T10:43:33.936Z,6.18
2024-03-13T10:46:02.740Z,10.68
2024-03-13T10:48:32.777Z,6.72
2024-03-13T10:51:02.901Z,8.15
2024-03-13T10:53:31.656Z,12.55
2024-03-13T10:56:00.204Z,9.18
2024-03-13T10:58:29.188Z,8.60
2024-03-13T11:00:58.068Z,7.30
2024-03-13T11:03:28.921Z,10.77
2024-03-13T11:05:57.618Z,7.20
2024-03-13T11:08:29.534Z,7.03
2024-03-13T11:11:10.082Z,5.55
2024-03-13T11:13:52.358Z,6.93
2024-03-13T11:16:24.641Z,7.18
2024-03-13T11:18:54.543Z,6.95
2024-03-13T11:21:58.722Z,5.57
2024-03-13T11:24:30.756Z,8.18
2024-03-13T11:27:08.415Z,10.80
2024-03-13T11:29:46.639Z,11.60
2024-03-13T11:32:16.204Z,5.07
2024-03-13T11:34:44.880Z,6.28
2024-03-13T11:37:14.309Z,8.45
2024-03-13T11:39:45.115Z,18.42
2024-03-13T11:42:19.061Z,8.07
2024-03-13T11:44:48.176Z,6.88
2024-03-13T11:47:19.166Z,5.93
2024-03-13T11:49:59.586Z,9.05
2024-03-13T11:52:28.284Z,7.10
2024-03-13T11:55:00.720Z,9.50
2024-03-13T11:57:29.424Z,6.40
2024-03-13T11:59:58.561Z,11.00
2024-03-13T12:02:30.350Z,10.35
2024-03-13T12:05:14.520Z,7.45
2024-03-13T12:07:45.695Z,11.93
2024-03-13T12:10:19.869Z,7.63
2024-03-13T12:12:51.846Z,9.05
2024-03-13T12:15:21.416Z,11.65
2024-03-13T12:17:53.783Z,10.43
2024-03-13T12:20:24.922Z,8.45
2024-03-13T12:22:54.483Z,6.53
2024-03-13T12:25:23.239Z,9.43
2024-03-13T12:27:52.913Z,8.38
2024-03-13T12:30:22.849Z,5.18
2024-03-13T12:33:04.331Z,5.68
2024-03-13T12:35:35.253Z,5.50
2024-03-13T12:38:04.048Z,6.30
2024-03-13T12:40:33.327Z,15.88
2024-03-13T12:43:06.541Z,20.30
2024-03-13T12:45:35.587Z,12.70
2024-03-13T12:48:05.684Z,10.20
2024-03-13T12:50:34.612Z,7.50
2024-03-13T12:53:03.683Z,22.25
2024-03-13T12:55:33.246Z,21.58
2024-03-13T12:58:07.765Z,10.95
2024-03-13T13:00:38.273Z,7.72
2024-03-13T13:03:08.617Z,13.10
2024-03-13T13:05:40.812Z,9.02
2024-03-13T13:08:13.069Z,7.72
2024-03-13T13:10:42.443Z,7.53
2024-03-13T13:13:11.767Z,34.28
2024-03-13T13:15:40.405Z,7.10
2024-03-13T13:18:10.930Z,25.08
2024-03-13T13:20:39.927Z,7.22
2024-03-13T13:23:09.735Z,6.97
2024-03-13T13:25:38.280Z,21.80
2024-03-13T13:28:07.439Z,22.10
2024-03-13T13:30:36.848Z,11.73
2024-03-13T13:33:05.540Z,7.35
2024-03-13T13:35:34.298Z,43.25
2024-03-13T13:38:04.353Z,17.73
2024-03-13T13:40:33.221Z,11.63
2024-03-13T13:43:01.833Z,9.07
2024-03-13T13:45:30.579Z,40.50
2024-03-13T13:47:59.361Z,9.57
2024-03-13T13:50:28.654Z,42.53
2024-03-13T13:52:57.220Z,15.48
2024-03-13T13:55:26.501Z,51.78
2024-03-13T13:57:55.308Z,11.43
2024-03-13T14:00:25.735Z,17.50
2024-03-13T14:02:56.688Z,15.90
2024-03-13T14:05:29.357Z,13.88
2024-03-13T14:07:58.328Z,19.73
2024-03-13T14:10:26.990Z,22.27
2024-03-13T14:12:57.720Z,15.85
2024-03-13T14:15:26.656Z,43.85
2024-03-13T14:17:55.636Z,26.10
2024-03-13T14:20:25.545Z,42.03
2024-03-13T14:22:56.459Z,22.33
2024-03-13T14:25:27.040Z,18.70
2024-03-13T14:27:56.697Z,14.90
2024-03-13T14:30:25.331Z,30.17
2024-03-13T14:32:54.516Z,23.77
2024-03-13T14:35:23.975Z,36.75
2024-03-13T14:37:52.578Z,11.05
2024-03-13T14:40:22.865Z,23.88
2024-03-13T14:42:51.649Z,17.27
2024-03-13T14:45:20.831Z,18.20
2024-03-13T14:47:49.416Z,22.38
2024-03-13T14:50:23.859Z,15.88
2024-03-13T14:53:03.133Z,31.70
2024-03-13T14:55:35.415Z,38.97
2024-03-13T14:58:05.656Z,19.80
2024-03-13T15:00:34.516Z,17.13
2024-03-13T15:03:03.602Z,15.52
2024-03-13T15:05:35.193Z,11.05
2024-03-13T15:08:06.383Z,7.85
2024-03-13T15:10:35.240Z,9.65
2024-03-13T15:13:03.917Z,15.98
2024-03-13T15:15:32.675Z,15.25
2024-03-13T15:18:02.957Z,14.00
2024-03-13T15:20:31.893Z,14.52
2024-03-13T15:23:00.456Z,15.38
2024-03-13T15:25:29.084Z,19.95
2024-03-13T15:27:57.694Z,12.63
2024-03-13T15:30:26.358Z,11.60
2024-03-13T15:32:55.581Z,13.50
2024-03-13T15:35:24.293Z,17.73
2024-03-13T15:37:52.908Z,13.93
2024-03-13T15:40:22.331Z,19.65
2024-03-13T15:42:51.797Z,17.17
2024-03-13T15:45:22.013Z,34.33
2024-03-13T15:47:50.739Z,30.63
2024-03-13T15:50:29.009Z,19.25
2024-03-13T15:53:02.715Z,20.88
2024-03-13T15:55:31.737Z,19.45
2024-03-13T15:58:00.932Z,22.10
2024-03-13T16:00:30.912Z,18.95
2024-03-13T16:03:03.250Z,21.63
2024-03-13T16:05:33.376Z,17.08
2024-03-13T16:08:13.814Z,19.50
2024-03-13T16:10:42.570Z,29.23
2024-03-13T16:13:11.601Z,43.95
2024-03-13T16:15:40.266Z,32.10
2024-03-13T16:18:09.062Z,27.15
2024-03-13T16:20:38.987Z,26.58
2024-03-13T16:23:08.380Z,40.38
2024-03-13T16:25:37.132Z,27.35
2024-03-13T16:28:06.125Z,33.67
2024-03-13T16:30:34.766Z,56.00
2024-03-13T16:33:03.382Z,36.30
2024-03-13T16:35:32.026Z,33.45
2024-03-13T16:38:01.610Z,24.90
2024-03-13T16:40:30.192Z,34.88
2024-03-13T16:42:58.709Z,57.92
2024-03-13T16:45:27.177Z,40.00
2024-03-13T16:47:55.884Z,41.10
2024-03-13T16:50:24.620Z,53.13
2024-03-13T16:52:53.223Z,51.58
2024-03-13T16:55:21.805Z,45.92
2024-03-13T16:57:51.348Z,46.45
2024-03-13T17:00:19.949Z,50.00
2024-03-13T17:02:49.173Z,62.50
2024-03-13T17:05:18.765Z,54.00
2024-03-13T17:07:49.351Z,58.70
2024-03-13T17:10:19.166Z,51.00
2024-03-13T17:12:47.789Z,44.95
2024-03-13T17:15:16.692Z,62.63
2024-03-13T17:17:45.368Z,77.40
2024-03-13T17:20:16.568Z,72.72
2024-03-13T17:22:48.218Z,68.35
2024-03-13T17:25:16.984Z,56.15
2024-03-13T17:27:45.607Z,68.47
2024-03-13T17:30:14.979Z,64.22
2024-03-13T17:32:43.753Z,55.90
2024-03-13T17:35:12.706Z,51.63
2024-03-13T17:37:42.334Z,64.40
2024-03-13T17:40:16.518Z,62.60
2024-03-13T17:42:46.858Z,62.10
2024-03-13T17:45:17.630Z,63.40
2024-03-13T17:47:46.701Z,60.35
2024-03-13T17:50:15.948Z,64.68
2024-03-13T17:52:44.592Z,64.60
2024-03-13T17:55:13.326Z,56.40
2024-03-13T17:57:41.973Z,49.35
2024-03-13T18:00:11.148Z,59.58
2024-03-13T18:02:40.666Z,57.25
2024-03-13T18:05:09.629Z,56.50
2024-03-13T18:07:38.722Z,49.03
2024-03-13T18:10:08.253Z,54.13
2024-03-13T18:12:37.693Z,53.78
2024-03-13T18:15:06.882Z,57.83
2024-03-13T18:17:36.749Z,57.65
2024-03-13T18:20:10.841Z,57.67
2024-03-13T18:22:39.955Z,47.97
2024-03-13T18:25:11.273Z,53.80
2024-03-13T18:27:40.378Z,49.20
2024-03-13T18:30:15.529Z,44.92
2024-03-13T18:32:45.646Z,36.25
2024-03-13T18:35:15.811Z,44.92
2024-03-13T18:37:44.999Z,36.53
2024-03-13T18:40:19.797Z,34.78
2024-03-13T18:42:48.386Z,37.42
2024-03-13T18:45:17.054Z,35.25
2024-03-13T18:47:45.973Z,32.67
2024-03-13T18:50:16.414Z,29.55
2024-03-13T18:52:45.404Z,30.88
2024-03-13T18:55:17.210Z,30.42
2024-03-13T18:57:45.875Z,31.35
2024-03-13T19:00:15.940Z,29.90
2024-03-13T19:02:45.148Z,32.47
2024-03-13T19:05:19.410Z,29.17
2024-03-13T19:07:54.177Z,30.30
2024-03-13T19:10:26.622Z,27.67
2024-03-13T19:15:31.294Z,35.40
2024-03-13T19:18:03.197Z,32.25
2024-03-13T19:20:32.593Z,32.20
2024-03-13T19:23:05.795Z,29.02
2024-03-13T19:28:05.770Z,25.50
2024-03-13T19:30:34.794Z,24.95
2024-03-13T19:33:06.485Z,34.45
2024-03-13T19:35:36.981Z,24.48
2024-03-13T19:38:06.734Z,25.58
2024-03-13T19:40:35.470Z,24.40
2024-03-13T19:43:05.565Z,27.83
2024-03-13T19:45:35.263Z,30.83
2024-03-13T19:48:05.656Z,20.58
2024-03-13T19:50:34.718Z,26.58
2024-03-13T19:53:03.321Z,26.58
2024-03-13T19:55:31.964Z,23.02
2024-03-13T19:58:00.233Z,27.88
2024-03-13T20:00:28.974Z,25.50
2024-03-13T20:02:57.626Z,27.55
2024-03-13T20:05:26.362Z,29.73
2024-03-13T20:07:54.937Z,28.17
2024-03-13T20:10:27.482Z,24.23
2024-03-13T20:12:59.095Z,23.40
2024-03-13T20:15:27.881Z,29.38
2024-03-13T20:17:56.547Z,31.08
2024-03-13T20:20:26.603Z,25.80
2024-03-13T20:22:55.379Z,23.65
2024-03-13T20:25:24.341Z,25.27
2024-03-13T20:27:52.920Z,23.52
2024-03-13T20:30:21.047Z,20.05
2024-03-13T20:32:49.734Z,20.75
2024-03-13T20:35:18.362Z,22.30
2024-03-13T20:37:47.066Z,23.98
2024-03-13T20:40:16.801Z,16.52
2024-03-13T20:42:45.448Z,20.95
2024-03-13T20:45:14.221Z,20.05
2024-03-13T20:47:43.313Z,16.98
2024-03-13T20:50:11.940Z,19.10
2024-03-13T20:52:41.008Z,19.52
2024-03-13T20:55:10.752Z,16.42
2024-03-13T20:57:40.207Z,15.07
2024-03-13T21:00:19.339Z,16.23
2024-03-13T21:02:48.238Z,17.70
2024-03-13T21:05:18.375Z,13.18
2024-03-13T21:07:46.947Z,19.67
2024-03-13T21:10:16.456Z,14.73
2024-03-13T21:12:46.401Z,14.57
2024-03-13T21:15:15.100Z,14.55
2024-03-13T21:17:45.272Z,10.60
2024-03-13T21:20:19.612Z,10.70
2024-03-13T21:22:48.398Z,11.18
2024-03-13T21:25:17.001Z,11.00
2024-03-13T21:27:45.752Z,11.60
2024-03-13T21:30:17.190Z,13.02
2024-03-13T21:32:46.201Z,9.15
2024-03-13T21:35:19.457Z,8.98
2024-03-13T21:37:49.679Z,11.18
2024-03-13T21:40:18.372Z,10.88
2024-03-13T21:42:47.803Z,11.35
2024-03-13T21:45:16.463Z,9.23
2024-03-13T21:47:47.020Z,9.50
2024-03-13T21:50:16.226Z,12.07
2024-03-13T21:52:44.998Z,9.48
2024-03-13T21:55:14.629Z,6.40
2024-03-13T21:57:47.554Z,7.95
2024-03-13T22:00:19.217Z,10.10
2024-03-13T22:02:47.956Z,8.10
2024-03-13T22:05:16.691Z,7.70
2024-03-13T22:07:45.848Z,6.75
2024-03-13T22:10:14.545Z,6.43
2024-03-13T22:12:43.745Z,9.13
2024-03-13T22:15:15.228Z,9.68
2024-03-13T22:17:44.276Z,6.63
2024-03-13T22:20:12.982Z,6.68
2024-03-13T22:22:41.828Z,7.95
2024-03-13T22:25:12.206Z,7.25
2024-03-13T22:27:40.864Z,10.55
2024-03-13T22:30:09.996Z,5.78
2024-03-13T22:32:38.642Z,5.53
2024-03-13T22:35:08.314Z,8.02
2024-03-13T22:37:37.374Z,6.90
2024-03-13T22:40:14.121Z,6.13
2024-03-13T22:42:42.825Z,5.32
2024-03-13T22:45:11.544Z,9.65
2024-03-13T22:47:40.360Z,6.40
2024-03-13T22:50:10.984Z,6.05
2024-03-13T22:52:39.739Z,5.13
2024-03-13T22:55:08.791Z,7.20
2024-03-13T22:57:37.969Z,5.90
2024-03-13T23:00:26.163Z,10.85
2024-03-13T23:02:55.837Z,4.25
2024-03-13T23:05:25.744Z,6.78
2024-03-13T23:07:54.583Z,6.80
2024-03-13T23:10:22.875Z,10.00
2024-03-13T23:12:51.818Z,4.63
2024-03-13T23:15:20.521Z,7.60
2024-03-13T23:17:50.374Z,4.35
2024-03-13T23:20:19.110Z,14.88
2024-03-13T23:22:47.874Z,5.70
2024-03-13T23:25:16.126Z,5.00
2024-03-13T23:27:45.170Z,3.55
2024-03-13T23:30:13.967Z,5.15
2024-03-13T23:32:42.687Z,3.40
2024-03-13T23:35:12.910Z,10.10
2024-03-13T23:37:42.676Z,6.18
2024-03-13T23:40:13.130Z,6.15
2024-03-13T23:42:52.887Z,5.85
2024-03-13T23:45:25.371Z,4.50
2024-03-13T23:47:54.280Z,8.77
2024-03-13T23:50:24.311Z,8.38
2024-03-13T23:52:53.499Z,4.72
2024-03-13T23:55:22.241Z,4.25
2024-03-13T23:57:51.721Z,6.90
